Etusivu
METAR-TAF:

METAR-TAF

Lentoasemat :

Seattle, Washington, Yhdysvallat

Leveyspiiri: 47-32-45N, Pituuspiiri: 122-18-49W, korkeus merenpinnasta: 5 m

Tämänhetkinen sää

Tämä raportti tehtiin 1 tunti ja 2 minuuttia sitten, kello 11.53 UTC
tyyntä
Lämpötila 14°C
Kosteus 88%
Ilmanpaine 1020 hPa
Näkyvyys: 16.1 km
selkeää

METAR: KBFI 291153Z 00000KT 10SM CLR 14/12 A3011 RMK AO2 SLP196 T01390117 10167 20139 56009

Aika: 05:55 (12:55 UTC)

Sääennuste

Tämä raportti tehtiin 1 tunti ja 34 minuuttia sitten, kello 11.21 UTC
Ennuste voimassa 29. päivästä klo 12 UTC - 30. päivään klo 12 UTC
Tuuli 3 kn eri suunnista
Näkyvyys: 10 km
selkeää
From 29. päivästä klo 2200 UTC
Tuuli 6 kn pohjoisen/luoteesta
Näkyvyys: 10 km
selkeää
From 30. päivästä klo 0500 UTC
Tuuli kn pohjoisesta
Näkyvyys: 10 km
Hajonneita pilviä 20000 ft:n korkeudessa

TAF: KBFI 291121Z 2912/3012 VRB03KT P6SM SKC FM292200 34006KT P6SM SKC FM300500 00000KT P6SM BKN200

Säähavainnot ja -ennusteet yli 4000 lentoasemalta (METAR- ja TAF-raportit).

Käytössä olevat sääasemat on merkitty karttaan keltaisilla ja punaisilla pisteillä.

Aseta hiiri pisteen päälle nähdäksesi sääaseman nimen.

Klikkaa sitten nähdäksesi säähavainnot ja -ennusteet.

Kartan vaihtaminen: klikkaa mustalla rastilla varustettuja vihreitä pisteitä, niin voit zoomata sisään; viivalla varustettua vihreää pistettä, niin voit zoomata ulos tai vihreitä nuolia, niin pääset viereisille kartoille.


METAR-TAF: